createdAt,value
2022-09-23T00:01:03.278Z,101492.72
2022-09-23T00:03:30.785Z,101500.66
2022-09-23T00:06:01.554Z,101502.03
2022-09-23T00:08:28.920Z,101502.19
2022-09-23T00:10:55.832Z,101501.22
2022-09-23T00:13:24.572Z,101502.06
2022-09-23T00:15:51.701Z,101498.50
2022-09-23T00:18:18.250Z,101493.28
2022-09-23T00:20:45.185Z,101496.75
2022-09-23T00:23:11.845Z,101499.56
2022-09-23T00:25:38.327Z,101497.47
2022-09-23T00:28:04.778Z,101503.94
2022-09-23T00:30:32.342Z,101508.66
2022-09-23T00:32:58.848Z,101499.84
2022-09-23T00:35:25.278Z,101502.84
2022-09-23T00:37:51.874Z,101510.78
2022-09-23T00:40:18.652Z,101503.41
2022-09-23T00:42:46.961Z,101493.53
2022-09-23T00:45:13.601Z,101503.81
2022-09-23T00:47:48.048Z,101490.06
2022-09-23T00:50:35.174Z,101490.06
2022-09-23T00:53:03.760Z,101480.03
2022-09-23T00:55:34.138Z,101481.03
2022-09-23T00:58:03.389Z,101484.56
2022-09-23T01:00:29.902Z,101482.94
2022-09-23T01:02:56.346Z,101482.53
2022-09-23T01:05:23.403Z,101478.34
2022-09-23T01:07:50.820Z,101475.31
2022-09-23T01:10:18.534Z,101484.59
2022-09-23T01:12:50.151Z,101473.13
2022-09-23T01:15:40.511Z,101476.09
2022-09-23T01:18:11.379Z,101471.44
2022-09-23T01:20:47.384Z,101464.81
2022-09-23T01:23:23.246Z,101465.94
2022-09-23T01:26:03.896Z,101467.91
2022-09-23T01:28:37.615Z,101465.84
2022-09-23T01:31:15.012Z,101470.16
2022-09-23T01:34:03.459Z,101461.41
2022-09-23T01:36:53.846Z,101466.44
2022-09-23T01:39:33.714Z,101466.56
2022-09-23T01:42:25.908Z,101465.06
2022-09-23T01:45:25.782Z,101465.72
2022-09-23T01:47:57.138Z,101460.56
2022-09-23T01:50:52.043Z,101451.44
2022-09-23T01:53:23.527Z,101458.72
2022-09-23T01:55:53.164Z,101461.34
2022-09-23T01:58:27.957Z,101468.09
2022-09-23T02:00:59.535Z,101461.13
2022-09-23T02:03:32.343Z,101458.28
2022-09-23T02:06:22.384Z,101462.94
2022-09-23T02:08:58.486Z,101463.53
2022-09-23T02:11:25.712Z,101454.75
2022-09-23T02:14:08.926Z,101462.59
2022-09-23T02:16:55.108Z,101457.66
2022-09-23T02:19:29.486Z,101456.81
2022-09-23T02:22:03.667Z,101457.09
2022-09-23T02:24:36.802Z,101455.53
2022-09-23T02:27:26.265Z,101457.94
2022-09-23T02:30:03.931Z,101461.41
2022-09-23T02:32:48.855Z,101457.22
2022-09-23T02:35:15.629Z,101457.81
2022-09-23T02:37:48.263Z,101457.50
2022-09-23T02:40:23.586Z,101465.66
2022-09-23T02:43:21.193Z,101457.38
2022-09-23T02:45:47.795Z,101459.78
2022-09-23T02:48:18.809Z,101454.59
2022-09-23T02:50:47.693Z,101462.53
2022-09-23T02:53:16.159Z,101449.09
2022-09-23T02:55:43.032Z,101447.81
2022-09-23T02:58:10.242Z,101443.66
2022-09-23T03:00:57.954Z,101446.63
2022-09-23T03:03:47.235Z,101436.59
2022-09-23T03:06:28.069Z,101434.97
2022-09-23T03:09:12.543Z,101434.69
2022-09-23T03:11:41.163Z,101430.25
2022-09-23T03:14:20.554Z,101426.34
2022-09-23T03:17:02.094Z,101424.47
2022-09-23T03:19:28.474Z,101420.19
2022-09-23T03:22:11.542Z,101421.47
2022-09-23T03:24:39.426Z,101421.13
2022-09-23T03:27:13.935Z,101411.38
2022-09-23T03:29:45.570Z,101414.13
2022-09-23T03:32:13.346Z,101414.56
2022-09-23T03:34:41.531Z,101413.56
2022-09-23T03:37:31.324Z,101415.19
2022-09-23T03:40:09.501Z,101409.81
2022-09-23T03:42:37.388Z,101413.34
2022-09-23T03:45:08.311Z,101412.00
2022-09-23T03:47:35.140Z,101413.00
2022-09-23T03:50:01.839Z,101411.94
2022-09-23T03:52:29.489Z,101406.97
2022-09-23T03:54:56.059Z,101400.69
2022-09-23T03:57:23.196Z,101400.28
2022-09-23T03:59:50.644Z,101397.63
2022-09-23T04:02:18.597Z,101394.81
2022-09-23T04:04:46.578Z,101388.81
2022-09-23T04:07:13.501Z,101396.44
2022-09-23T04:09:40.450Z,101399.28
2022-09-23T04:12:08.078Z,101397.16
2022-09-23T04:14:34.805Z,101392.03
2022-09-23T04:17:01.486Z,101381.38
2022-09-23T04:19:28.073Z,101389.22
2022-09-23T04:21:54.569Z,101389.16
2022-09-23T04:24:21.851Z,101384.44
2022-09-23T04:26:51.965Z,101380.69
2022-09-23T04:29:19.735Z,101382.72
2022-09-23T04:31:48.643Z,101386.47
2022-09-23T04:34:18.249Z,101378.75
2022-09-23T04:36:45.780Z,101381.28
2022-09-23T04:39:18.591Z,101381.97
2022-09-23T04:41:45.624Z,101373.56
2022-09-23T04:44:13.864Z,101381.09
2022-09-23T04:46:41.306Z,101376.28
2022-09-23T04:49:08.416Z,101374.09
2022-09-23T04:51:35.317Z,101370.44
2022-09-23T04:54:01.927Z,101373.84
2022-09-23T04:56:32.602Z,101382.25
2022-09-23T04:59:01.094Z,101377.06
2022-09-23T05:01:30.572Z,101375.41
2022-09-23T05:04:02.467Z,101374.16
2022-09-23T05:06:31.851Z,101376.44
2022-09-23T05:08:59.122Z,101379.34
2022-09-23T05:11:26.557Z,101377.97
2022-09-23T05:13:54.497Z,101376.72
2022-09-23T05:16:23.305Z,101384.66
2022-09-23T05:18:50.651Z,101379.16
2022-09-23T05:21:22.422Z,101378.19
2022-09-23T05:23:52.428Z,101379.97
2022-09-23T05:26:18.992Z,101386.66
2022-09-23T05:28:45.609Z,101382.50
2022-09-23T05:31:19.590Z,101375.34
2022-09-23T05:34:02.450Z,101379.69
2022-09-23T05:36:34.465Z,101381.06
2022-09-23T05:39:04.641Z,101386.50
2022-09-23T05:41:31.406Z,101386.66
2022-09-23T05:43:59.728Z,101385.91
2022-09-23T05:46:28.560Z,101377.06
2022-09-23T05:49:01.160Z,101374.31
2022-09-23T05:51:31.167Z,101380.41
2022-09-23T05:53:59.847Z,101378.06
2022-09-23T05:56:27.740Z,101384.88
2022-09-23T05:58:57.866Z,101375.94
2022-09-23T06:01:26.598Z,101372.31
2022-09-23T06:03:54.719Z,101372.28
2022-09-23T06:06:26.407Z,101375.28
2022-09-23T06:08:52.956Z,101373.78
2022-09-23T06:11:21.509Z,101370.16
2022-09-23T06:13:48.710Z,101364.75
2022-09-23T06:16:15.967Z,101366.16
2022-09-23T06:18:44.296Z,101368.84
2022-09-23T06:21:16.100Z,101369.34
2022-09-23T06:23:43.467Z,101371.22
2022-09-23T06:26:12.384Z,101371.09
2022-09-23T06:28:40.483Z,101375.00
2022-09-23T06:31:14.960Z,101380.44
2022-09-23T06:33:42.938Z,101375.50
2022-09-23T06:36:09.812Z,101371.84
2022-09-23T06:38:39.976Z,101378.19
2022-09-23T06:41:07.151Z,101372.00
2022-09-23T06:43:33.942Z,101361.34
2022-09-23T06:46:02.047Z,101356.75
2022-09-23T06:48:29.398Z,101365.28
2022-09-23T06:50:59.666Z,101365.00
2022-09-23T06:53:26.222Z,101358.66
2022-09-23T06:56:06.591Z,101363.97
2022-09-23T06:58:34.281Z,101367.34
2022-09-23T07:01:04.620Z,101360.13
2022-09-23T07:03:31.944Z,101353.75
2022-09-23T07:05:59.287Z,101348.81
2022-09-23T07:08:27.312Z,101351.06
2022-09-23T07:10:57.547Z,101345.47
2022-09-23T07:13:24.642Z,101354.91
2022-09-23T07:15:56.253Z,101354.16
2022-09-23T07:18:25.714Z,101355.00
2022-09-23T07:20:53.063Z,101355.09
2022-09-23T07:23:19.747Z,101352.75
2022-09-23T07:25:46.967Z,101353.41
2022-09-23T07:28:13.668Z,101348.09
2022-09-23T07:30:56.653Z,101354.63
2022-09-23T07:33:32.162Z,101341.59
2022-09-23T07:35:59.414Z,101346.72
2022-09-23T07:38:30.383Z,101351.09
2022-09-23T07:41:11.629Z,101348.09
2022-09-23T07:43:39.940Z,101349.63
2022-09-23T07:46:18.830Z,101343.44
2022-09-23T07:48:46.000Z,101346.56
2022-09-23T07:51:14.378Z,101350.06
2022-09-23T07:53:40.879Z,101341.78
2022-09-23T07:56:07.555Z,101337.75
2022-09-23T07:58:35.018Z,101338.19
2022-09-23T08:01:12.163Z,101340.41
2022-09-23T08:03:39.326Z,101342.53
2022-09-23T08:06:08.038Z,101342.63
2022-09-23T08:08:35.657Z,101350.81
2022-09-23T08:11:07.136Z,101343.28
2022-09-23T08:13:34.144Z,101349.56
2022-09-23T08:16:00.903Z,101342.59
2022-09-23T08:18:27.819Z,101344.69
2022-09-23T08:20:54.317Z,101351.47
2022-09-23T08:23:21.177Z,101347.63
2022-09-23T08:25:48.136Z,101349.84
2022-09-23T08:28:18.522Z,101351.38
2022-09-23T08:30:48.573Z,101347.41
2022-09-23T08:33:17.475Z,101350.94
2022-09-23T08:35:46.345Z,101342.72
2022-09-23T08:38:12.967Z,101345.56
2022-09-23T08:40:42.413Z,101346.31
2022-09-23T08:43:17.660Z,101341.91
2022-09-23T08:45:44.916Z,101350.13
2022-09-23T08:48:17.158Z,101340.78
2022-09-23T08:50:46.808Z,101340.50
2022-09-23T08:53:38.035Z,101347.00
2022-09-23T08:56:13.761Z,101345.13
2022-09-23T08:59:29.270Z,101338.84
2022-09-23T09:02:01.212Z,101340.94
2022-09-23T09:04:40.624Z,101339.16
2022-09-23T09:07:24.922Z,101339.22
2022-09-23T09:10:12.079Z,101338.84
2022-09-23T09:12:43.774Z,101328.91
2022-09-23T09:15:25.458Z,101324.81
2022-09-23T09:18:06.500Z,101324.50
2022-09-23T09:20:57.341Z,101327.94
2022-09-23T09:23:29.877Z,101328.59
2022-09-23T09:25:59.531Z,101324.03
2022-09-23T09:29:17.147Z,101321.53
2022-09-23T09:31:51.619Z,101319.00
2022-09-23T09:34:21.349Z,101321.28
2022-09-23T09:37:07.879Z,101330.69
2022-09-23T09:39:35.292Z,101325.63
2022-09-23T09:42:02.546Z,101331.75
2022-09-23T09:45:11.232Z,101334.31
2022-09-23T09:48:06.660Z,101324.72
2022-09-23T09:50:53.064Z,101325.75
2022-09-23T09:53:22.315Z,101318.94
2022-09-23T09:56:08.128Z,101318.63
2022-09-23T09:58:43.779Z,101321.22
2022-09-23T10:01:22.539Z,101314.25
2022-09-23T10:03:53.193Z,101308.19
2022-09-23T10:06:33.209Z,101309.94
2022-09-23T10:09:21.656Z,101310.59
2022-09-23T10:12:15.889Z,101308.13
2022-09-23T10:14:43.028Z,101308.53
2022-09-23T10:17:20.605Z,101303.94
2022-09-23T10:20:08.237Z,101306.03
2022-09-23T10:22:42.851Z,101303.75
2022-09-23T10:25:26.767Z,101300.91
2022-09-23T10:27:53.503Z,101303.94
2022-09-23T10:30:23.027Z,101305.28
2022-09-23T10:32:51.597Z,101300.28
2022-09-23T10:35:24.516Z,101304.81
2022-09-23T10:37:58.246Z,101301.34
2022-09-23T10:40:58.826Z,101296.38
2022-09-23T10:44:11.698Z,101295.84
2022-09-23T10:46:52.227Z,101292.06
2022-09-23T10:49:49.945Z,101292.00
2022-09-23T10:52:39.567Z,101288.50
2022-09-23T10:55:27.754Z,101294.88
2022-09-23T10:57:54.186Z,101289.91
2022-09-23T11:00:42.066Z,101289.63
2022-09-23T11:03:20.648Z,101280.88
2022-09-23T11:05:56.329Z,101285.22
2022-09-23T11:08:29.759Z,101269.91
2022-09-23T11:11:21.139Z,101282.00
2022-09-23T11:14:25.224Z,101270.69
2022-09-23T11:17:04.769Z,101271.38
2022-09-23T11:19:49.396Z,101270.81
2022-09-23T11:22:38.062Z,101262.72
2022-09-23T11:25:08.182Z,101261.81
2022-09-23T11:28:17.524Z,101256.91
2022-09-23T11:31:04.287Z,101263.78
2022-09-23T11:33:53.887Z,101253.63
2022-09-23T11:36:35.710Z,101251.56
2022-09-23T11:39:36.120Z,101259.78
2022-09-23T11:42:10.684Z,101256.00
2022-09-23T11:44:45.879Z,101257.09
2022-09-23T11:47:49.970Z,101254.00
2022-09-23T11:50:28.429Z,101256.13
2022-09-23T11:53:04.792Z,101246.69
2022-09-23T11:55:54.259Z,101247.53
2022-09-23T11:58:31.860Z,101248.63
2022-09-23T12:01:02.908Z,101245.34
2022-09-23T12:04:01.165Z,101234.44
2022-09-23T12:06:38.416Z,101237.69
2022-09-23T12:09:14.495Z,101237.59
2022-09-23T12:11:46.707Z,101231.69
2022-09-23T12:14:23.900Z,101221.00
2022-09-23T12:16:56.124Z,101220.72
2022-09-23T12:19:47.641Z,101225.69
2022-09-23T12:22:39.172Z,101227.34
2022-09-23T12:25:35.649Z,101217.94
2022-09-23T12:28:10.407Z,101226.78
2022-09-23T12:30:37.589Z,101222.31
2022-09-23T12:33:31.180Z,101211.75
2022-09-23T12:36:06.324Z,101215.69
2022-09-23T12:38:47.536Z,101214.44
2022-09-23T12:41:24.046Z,101215.88
2022-09-23T12:43:55.319Z,101219.63
2022-09-23T12:46:27.470Z,101216.25
2022-09-23T12:48:57.779Z,101219.19
2022-09-23T12:51:34.822Z,101215.53
2022-09-23T12:54:04.418Z,101209.31
2022-09-23T12:56:40.031Z,101205.56
2022-09-23T12:59:28.054Z,101198.00
2022-09-23T13:01:55.434Z,101199.66
2022-09-23T13:04:50.868Z,101189.38
2022-09-23T13:07:25.980Z,101197.09
2022-09-23T13:09:56.057Z,101197.56
2022-09-23T13:12:31.113Z,101187.75
2022-09-23T13:15:03.256Z,101188.19
2022-09-23T13:17:36.127Z,101185.97
2022-09-23T13:20:32.941Z,101175.66
2022-09-23T13:23:04.205Z,101182.50
2022-09-23T13:25:33.709Z,101177.38
2022-09-23T13:28:03.881Z,101169.09
2022-09-23T13:30:30.516Z,101172.56
2022-09-23T13:33:05.344Z,101173.28
2022-09-23T13:35:37.206Z,101175.84
2022-09-23T13:38:32.172Z,101169.50
2022-09-23T13:41:23.115Z,101164.38
2022-09-23T13:43:52.493Z,101165.75
2022-09-23T13:46:23.930Z,101166.09
2022-09-23T13:48:55.847Z,101161.63
2022-09-23T13:51:38.186Z,101153.28
2022-09-23T13:54:05.194Z,101159.50
2022-09-23T13:56:33.157Z,101157.16
2022-09-23T13:59:28.304Z,101158.03
2022-09-23T14:02:12.389Z,101153.41
2022-09-23T14:04:40.349Z,101149.50
2022-09-23T14:07:07.348Z,101149.56
2022-09-23T14:09:35.588Z,101145.06
2022-09-23T14:12:02.581Z,101147.88
2022-09-23T14:14:30.503Z,101149.19
2022-09-23T14:16:57.700Z,101133.69
2022-09-23T14:19:28.263Z,101140.97
2022-09-23T14:21:56.193Z,101138.31
2022-09-23T14:24:22.639Z,101136.31
2022-09-23T14:26:52.377Z,101141.31
2022-09-23T14:29:33.116Z,101137.19
2022-09-23T14:32:06.666Z,101129.56
2022-09-23T14:34:51.697Z,101130.34
2022-09-23T14:37:36.759Z,101130.94
2022-09-23T14:40:13.931Z,101134.50
2022-09-23T14:42:43.503Z,101127.38
2022-09-23T14:45:19.569Z,101126.41
2022-09-23T14:47:49.055Z,101126.13
2022-09-23T14:50:37.205Z,101122.75
2022-09-23T14:53:05.127Z,101125.72
2022-09-23T14:55:31.777Z,101111.50
2022-09-23T14:58:05.492Z,101115.69
2022-09-23T15:00:31.974Z,101117.50
2022-09-23T15:03:01.475Z,101111.31
2022-09-23T15:05:47.837Z,101113.25
2022-09-23T15:08:18.510Z,101114.44
2022-09-23T15:10:46.175Z,101114.03
2022-09-23T15:13:17.915Z,101109.72
2022-09-23T15:15:44.610Z,101102.47
2022-09-23T15:18:28.709Z,101100.66
2022-09-23T15:21:02.536Z,101102.47
2022-09-23T15:23:41.596Z,101103.44
2022-09-23T15:26:15.456Z,101103.94
2022-09-23T15:28:45.453Z,101101.34
2022-09-23T15:31:12.876Z,101098.28
2022-09-23T15:33:39.656Z,101098.69
2022-09-23T15:36:06.304Z,101099.94
2022-09-23T15:38:32.978Z,101102.00
2022-09-23T15:40:59.477Z,101100.84
2022-09-23T15:43:27.589Z,101098.16
2022-09-23T15:45:59.116Z,101093.38
2022-09-23T15:48:32.698Z,101093.66
2022-09-23T15:51:04.348Z,101094.66
2022-09-23T15:53:31.549Z,101095.25
2022-09-23T15:55:59.213Z,101103.69
2022-09-23T15:58:26.317Z,101101.53
2022-09-23T16:00:56.831Z,101093.06
2022-09-23T16:03:33.398Z,101100.22
2022-09-23T16:06:03.085Z,101092.97
2022-09-23T16:08:32.339Z,101100.03
2022-09-23T16:10:59.617Z,101100.94
2022-09-23T16:13:26.151Z,101101.75
2022-09-23T16:15:52.718Z,101110.22
2022-09-23T16:18:19.378Z,101104.34
2022-09-23T16:20:46.451Z,101105.28
2022-09-23T16:23:34.504Z,101097.69
2022-09-23T16:26:17.128Z,101103.31
2022-09-23T16:28:45.239Z,101103.06
2022-09-23T16:31:14.643Z,101101.47
2022-09-23T16:33:41.603Z,101102.03
2022-09-23T16:36:23.270Z,101103.47
2022-09-23T16:38:50.022Z,101098.81
2022-09-23T16:41:16.575Z,101102.66
2022-09-23T16:43:43.098Z,101097.59
2022-09-23T16:46:12.303Z,101097.59
2022-09-23T16:48:40.553Z,101098.19
2022-09-23T16:51:08.940Z,101096.97
2022-09-23T16:53:35.983Z,101100.13
2022-09-23T16:56:09.780Z,101093.47
2022-09-23T16:58:37.399Z,101089.94
2022-09-23T17:01:23.944Z,101096.16
2022-09-23T17:03:50.527Z,101086.00
2022-09-23T17:06:19.552Z,101089.03
2022-09-23T17:08:48.264Z,101087.59
2022-09-23T17:11:16.485Z,101088.47
2022-09-23T17:13:43.918Z,101086.16
2022-09-23T17:16:12.824Z,101087.72
2022-09-23T17:18:39.357Z,101086.41
2022-09-23T17:21:07.184Z,101080.78
2022-09-23T17:23:35.260Z,101079.00
2022-09-23T17:26:02.916Z,101080.09
2022-09-23T17:28:29.422Z,101079.56
2022-09-23T17:31:00.220Z,101079.91
2022-09-23T17:33:27.898Z,101082.69
2022-09-23T17:35:56.762Z,101085.88
2022-09-23T17:38:28.668Z,101084.69
2022-09-23T17:41:01.397Z,101081.34
2022-09-23T17:43:31.756Z,101093.38
2022-09-23T17:46:06.659Z,101093.25
2022-09-23T17:48:35.103Z,101089.72
2022-09-23T17:51:06.744Z,101083.63
2022-09-23T17:53:35.455Z,101084.00
2022-09-23T17:56:04.701Z,101093.06
2022-09-23T17:58:33.378Z,101087.44
2022-09-23T18:01:00.472Z,101085.59
2022-09-23T18:03:28.438Z,101080.06
2022-09-23T18:05:55.343Z,101081.63
2022-09-23T18:08:21.875Z,101084.56
2022-09-23T18:10:48.360Z,101087.19
2022-09-23T18:13:14.827Z,101086.56
2022-09-23T18:15:41.507Z,101086.16
2022-09-23T18:18:08.025Z,101087.03
2022-09-23T18:20:34.578Z,101083.94
2022-09-23T18:23:01.150Z,101087.63
2022-09-23T18:25:39.287Z,101085.97
2022-09-23T18:28:06.457Z,101093.03
2022-09-23T18:30:33.509Z,101087.84
2022-09-23T18:33:00.205Z,101092.44
2022-09-23T18:35:26.846Z,101084.63
2022-09-23T18:37:53.373Z,101091.63
2022-09-23T18:40:19.938Z,101089.22
2022-09-23T18:42:47.110Z,101083.78
2022-09-23T18:45:13.627Z,101088.50
2022-09-23T18:47:58.509Z,101089.91
2022-09-23T18:50:40.360Z,101091.56
2022-09-23T18:53:07.602Z,101090.84
2022-09-23T18:55:35.574Z,101094.25
2022-09-23T18:58:02.282Z,101088.34
2022-09-23T19:00:29.113Z,101092.53
2022-09-23T19:02:55.777Z,101092.94
2022-09-23T19:05:22.327Z,101094.34
2022-09-23T19:07:48.945Z,101096.19
2022-09-23T19:10:15.475Z,101093.34
2022-09-23T19:12:42.028Z,101095.75
2022-09-23T19:15:09.083Z,101093.78
2022-09-23T19:17:35.632Z,101092.00
2022-09-23T19:20:02.212Z,101094.97
2022-09-23T19:22:30.463Z,101091.91
2022-09-23T19:24:56.949Z,101085.75
2022-09-23T19:27:23.514Z,101092.81
2022-09-23T19:29:50.342Z,101091.28
2022-09-23T19:32:16.917Z,101094.38
2022-09-23T19:34:44.249Z,101084.78
2022-09-23T19:37:10.788Z,101087.81
2022-09-23T19:39:37.566Z,101090.88
2022-09-23T19:42:04.084Z,101083.28
2022-09-23T19:44:30.729Z,101082.41
2022-09-23T19:46:57.894Z,101086.59
2022-09-23T19:49:25.357Z,101087.38
2022-09-23T19:51:55.443Z,101086.00
2022-09-23T19:54:22.705Z,101077.94
2022-09-23T19:56:49.656Z,101079.63
2022-09-23T19:59:19.494Z,101083.69
2022-09-23T20:01:49.598Z,101071.53
2022-09-23T20:04:16.753Z,101074.19
2022-09-23T20:06:43.578Z,101069.63
2022-09-23T20:09:10.304Z,101063.88
2022-09-23T20:11:36.913Z,101060.88
2022-09-23T20:14:06.403Z,101067.06
2022-09-23T20:16:35.054Z,101065.66
2022-09-23T20:19:04.852Z,101062.03
2022-09-23T20:21:31.761Z,101059.22
2022-09-23T20:23:58.524Z,101055.13
2022-09-23T20:26:43.577Z,101054.94
2022-09-23T20:29:11.027Z,101051.81
2022-09-23T20:31:37.877Z,101044.06
2022-09-23T20:34:07.113Z,101050.88
2022-09-23T20:36:35.401Z,101047.97
2022-09-23T20:39:05.982Z,101053.31
2022-09-23T20:41:36.705Z,101049.69
2022-09-23T20:44:05.901Z,101050.00
2022-09-23T20:46:32.512Z,101046.97
2022-09-23T20:48:59.057Z,101050.88
2022-09-23T20:51:26.312Z,101049.75
2022-09-23T20:53:53.043Z,101050.56
2022-09-23T20:56:23.432Z,101050.31
2022-09-23T20:58:52.187Z,101049.66
2022-09-23T21:01:19.439Z,101041.81
2022-09-23T21:03:48.589Z,101043.88
2022-09-23T21:06:16.483Z,101044.63
2022-09-23T21:08:44.477Z,101043.44
2022-09-23T21:11:13.314Z,101041.00
2022-09-23T21:13:39.866Z,101045.88
2022-09-23T21:16:09.283Z,101050.53
2022-09-23T21:18:37.234Z,101044.19
2022-09-23T21:21:05.498Z,101041.38
2022-09-23T21:23:38.113Z,101048.75
2022-09-23T21:26:04.670Z,101046.91
2022-09-23T21:28:35.593Z,101041.69
2022-09-23T21:31:05.934Z,101042.63
2022-09-23T21:33:33.048Z,101045.69
2022-09-23T21:36:03.555Z,101058.25
2022-09-23T21:38:37.016Z,101050.38
2022-09-23T21:41:06.459Z,101056.22
2022-09-23T21:43:34.944Z,101057.22
2022-09-23T21:46:03.840Z,101056.03
2022-09-23T21:48:31.606Z,101060.19
2022-09-23T21:51:00.105Z,101047.69
2022-09-23T21:53:29.463Z,101049.03
2022-09-23T21:56:18.057Z,101035.78
2022-09-23T21:58:47.008Z,101042.00
2022-09-23T22:01:19.872Z,101049.69
2022-09-23T22:03:54.716Z,101049.97
2022-09-23T22:06:23.584Z,101045.31
2022-09-23T22:08:52.260Z,101039.78
2022-09-23T22:11:40.004Z,101037.88
2022-09-23T22:14:09.343Z,101037.69
2022-09-23T22:16:36.908Z,101032.78
2022-09-23T22:19:06.958Z,101042.41
2022-09-23T22:21:35.770Z,101032.97
2022-09-23T22:24:03.003Z,101038.69
2022-09-23T22:26:32.061Z,101040.53
2022-09-23T22:29:17.143Z,101039.22
2022-09-23T22:32:02.110Z,101035.66
2022-09-23T22:34:48.512Z,101037.50
2022-09-23T22:37:20.890Z,101039.97
2022-09-23T22:39:47.460Z,101036.44
2022-09-23T22:42:14.453Z,101038.47
2022-09-23T22:44:41.167Z,101041.41
2022-09-23T22:47:16.941Z,101040.66
2022-09-23T22:49:43.826Z,101025.19
2022-09-23T22:52:12.335Z,101030.75
2022-09-23T22:54:40.408Z,101028.47
2022-09-23T22:57:07.923Z,101031.56
2022-09-23T22:59:34.820Z,101026.91
2022-09-23T23:02:02.907Z,101022.63
2022-09-23T23:04:30.333Z,101030.34
2022-09-23T23:06:58.533Z,101025.38
2022-09-23T23:09:25.007Z,101017.84
2022-09-23T23:11:51.637Z,101022.00
2022-09-23T23:14:18.906Z,101019.84
2022-09-23T23:16:46.246Z,101016.16
2022-09-23T23:19:16.573Z,101011.97
2022-09-23T23:21:44.179Z,101014.56
2022-09-23T23:24:15.435Z,101014.28
2022-09-23T23:26:42.099Z,101013.34
2022-09-23T23:29:10.845Z,101011.19
2022-09-23T23:31:37.804Z,101006.06
2022-09-23T23:34:04.960Z,101013.19
2022-09-23T23:36:31.456Z,101009.94
2022-09-23T23:38:57.965Z,101006.97
2022-09-23T23:41:24.514Z,101012.44
2022-09-23T23:43:56.555Z,101011.97
2022-09-23T23:46:25.547Z,101015.06
2022-09-23T23:48:52.677Z,101006.59
2022-09-23T23:51:19.256Z,101003.97
2022-09-23T23:53:45.776Z,101006.09
2022-09-23T23:56:17.572Z,101001.94
2022-09-23T23:58:44.308Z,101002.09
